Time;durP1;ratioP1;P1;durP2;ratioP2;P2;SDS_P1;SDS_P2;PMS_P1;PMS_P2;Temp;Humidity;BMP_temperature;BMP_pressure;BME280_temperature;BME280_humidity;BME280_pressure;Samples;Min_cycle;Max_cycle;Signal;HPM_P1;HPM_P2
2023/08/05 00:02:20;;;;;;;;;;;;;;;5.85;100.00;99664.47;5085791;28;19943;-86
2023/08/05 00:04:45;;;;;;;;;;;;;;;5.88;100.00;99672.28;5088378;28;20062;-89
2023/08/05 00:07:11;;;;;;;;;;;;;;;5.92;100.00;99673.97;5088553;28;20543;-91
2023/08/05 00:09:36;;;;;;;;;;;;;;;5.97;100.00;99682.63;5088112;28;19916;-88
2023/08/05 00:12:01;;;;;;;;;;;;;;;5.89;100.00;99671.41;5089338;28;19921;-90
2023/08/05 00:14:26;;;;;;;;;;;;;;;6.00;100.00;99669.41;5088776;28;20386;-88
2023/08/05 00:16:52;;;;;;;;;;;;;;;5.91;100.00;99664.34;5087346;28;20380;-85
2023/08/05 00:19:17;;;;;;;;;;;;;;;5.95;100.00;99662.47;5087807;28;20013;-85
2023/08/05 00:21:42;;;;;;;;;;;;;;;5.97;100.00;99663.34;5087235;28;19916;-85
2023/08/05 00:24:07;;;;;;;;;;;;;;;5.78;100.00;99666.41;5088656;28;19928;-86
2023/08/05 00:26:33;;;;;;;;;;;;;;;5.95;100.00;99671.25;5088552;28;19923;-87
2023/08/05 05:19:47;;;;;;;;;;;;;;;5.48;100.00;99647.00;5786699;22;19938;-84
2023/08/05 05:22:17;;;;;;;;;;;;;;;5.39;100.00;99649.84;4990754;28;20403;-81
2023/08/05 05:24:42;;;;;;;;;;;;;;;5.49;100.00;99654.00;4984704;28;19930;-85
2023/08/05 05:27:08;;;;;;;;;;;;;;;5.57;100.00;99651.19;4983330;28;19977;-81
2023/08/05 05:29:34;;;;;;;;;;;;;;;5.44;100.00;99655.84;4983485;28;19925;-81
2023/08/05 05:32:00;;;;;;;;;;;;;;;5.60;100.00;99648.47;5008362;28;20008;-82
2023/08/05 05:34:25;;;;;;;;;;;;;;;5.63;100.00;99646.63;4983254;28;19948;-81
2023/08/05 05:36:50;;;;;;;;;;;;;;;5.78;100.00;99644.53;4985938;28;19940;-82
2023/08/05 05:39:15;;;;;;;;;;;;;;;5.83;100.00;99632.97;4983150;28;20292;-81
2023/08/05 05:41:41;;;;;;;;;;;;;;;5.77;100.00;99637.53;4983923;28;19924;-81
2023/08/05 05:44:06;;;;;;;;;;;;;;;5.57;100.00;99627.53;4984810;28;19922;-81
2023/08/05 05:46:34;;;;;;;;;;;;;;;5.63;100.00;99622.97;4983054;28;20289;-81
2023/08/05 05:48:59;;;;;;;;;;;;;;;5.57;100.00;99623.13;4981884;28;19933;-82
2023/08/05 05:51:25;;;;;;;;;;;;;;;5.57;100.00;99620.50;4983470;28;19917;-81
2023/08/05 05:53:55;;;;;;;;;;;;;;;5.50;100.00;99616.28;4983096;28;19918;-82
2023/08/05 05:56:20;;;;;;;;;;;;;;;5.36;100.00;99614.00;4983352;28;19917;-81
2023/08/05 05:58:45;;;;;;;;;;;;;;;5.54;100.00;99623.19;4983183;28;19924;-80
2023/08/05 06:01:10;;;;;;;;;;;;;;;5.55;100.00;99616.16;4984032;28;19918;-82
2023/08/05 06:03:37;;;;;;;;;;;;;;;5.53;100.00;99613.56;4982708;28;19926;-82
2023/08/05 06:06:02;;;;;;;;;;;;;;;5.53;100.00;99607.47;4984484;28;19918;-82
2023/08/05 06:08:31;;;;;;;;;;;;;;;5.53;100.00;99613.56;4984464;28;19918;-83
2023/08/05 06:11:00;;;;;;;;;;;;;;;5.52;100.00;99611.88;4983769;28;19929;-83
2023/08/05 06:13:25;;;;;;;;;;;;;;;5.49;100.00;99600.56;4983975;28;19922;-83
2023/08/05 06:15:52;;;;;;;;;;;;;;;5.58;100.00;99595.91;4982347;28;19968;-82
2023/08/05 06:18:17;;;;;;;;;;;;;;;5.82;100.00;99598.81;4983976;28;19919;-82
2023/08/05 06:20:43;;;;;;;;;;;;;;;5.68;100.00;99595.69;4989515;28;19921;-82
2023/08/05 06:23:08;;;;;;;;;;;;;;;5.57;100.00;99599.47;5003357;28;19937;-83
2023/08/05 06:25:33;;;;;;;;;;;;;;;5.54;100.00;99598.69;5003297;28;20355;-84
2023/08/05 06:27:58;;;;;;;;;;;;;;;5.68;100.00;99590.44;5003184;28;19975;-84
2023/08/05 06:30:24;;;;;;;;;;;;;;;5.46;100.00;99585.75;4994059;28;19921;-87
2023/08/05 06:32:49;;;;;;;;;;;;;;;5.58;100.00;99584.56;5003172;28;20026;-89
2023/08/05 06:35:14;;;;;;;;;;;;;;;5.55;100.00;99584.63;5001897;28;19918;-86
2023/08/05 06:37:40;;;;;;;;;;;;;;;5.61;100.00;99595.00;5003466;28;19918;-82
2023/08/05 06:40:05;;;;;;;;;;;;;;;5.56;100.00;99592.47;5003053;28;19918;-82
2023/08/05 06:42:31;;;;;;;;;;;;;;;5.51;100.00;99598.78;5003024;28;19918;-83
2023/08/05 06:44:56;;;;;;;;;;;;;;;5.52;100.00;99604.00;5003274;28;19923;-83
2023/08/05 06:47:21;;;;;;;;;;;;;;;5.78;100.00;99607.72;5002953;28;19918;-82
2023/08/05 06:49:46;;;;;;;;;;;;;;;5.44;100.00;99603.28;5001455;28;19943;-82
2023/08/05 06:52:12;;;;;;;;;;;;;;;5.43;100.00;99607.69;5002863;28;19928;-81
2023/08/05 06:54:37;;;;;;;;;;;;;;;5.56;100.00;99613.50;5003385;28;20051;-81
2023/08/05 06:57:02;;;;;;;;;;;;;;;5.42;100.00;99605.94;4992866;28;19980;-80
2023/08/05 06:59:28;;;;;;;;;;;;;;;5.48;100.00;99610.22;5002384;28;20008;-80
2023/08/05 07:01:53;;;;;;;;;;;;;;;5.51;100.00;99606.66;5002799;28;20284;-81
2023/08/05 07:04:19;;;;;;;;;;;;;;;5.42;100.00;99608.59;5001781;28;19922;-82
2023/08/05 07:36:32;;;;;;;;;;;;;;;5.40;100.00;99576.22;4987877;28;19988;-83
2023/08/05 07:38:59;;;;;;;;;;;;;;;5.27;100.00;99574.81;4992684;28;19969;-82
2023/08/05 07:41:26;;;;;;;;;;;;;;;5.43;100.00;99570.06;4992525;28;20265;-86
2023/08/05 07:43:54;;;;;;;;;;;;;;;5.33;100.00;99571.16;4992744;28;19921;-83
2023/08/05 07:46:20;;;;;;;;;;;;;;;5.52;100.00;99575.06;4991996;28;19972;-82
2023/08/05 07:48:47;;;;;;;;;;;;;;;5.41;100.00;99562.19;4991234;28;19926;-81
2023/08/05 07:51:12;;;;;;;;;;;;;;;5.58;100.00;99556.50;4994062;28;19969;-84
2023/08/05 07:53:38;;;;;;;;;;;;;;;5.49;100.00;99548.00;4996331;28;19972;-82
2023/08/05 07:56:10;;;;;;;;;;;;;;;5.44;100.00;99530.59;4996448;28;19934;-82
2023/08/05 07:58:36;;;;;;;;;;;;;;;5.60;100.00;99532.78;4996154;28;20013;-83
2023/08/05 08:01:02;;;;;;;;;;;;;;;5.60;100.00;99533.69;4995435;28;19961;-83
2023/08/05 08:03:29;;;;;;;;;;;;;;;5.48;100.00;99531.38;4994867;28;20392;-82
2023/08/05 08:05:54;;;;;;;;;;;;;;;5.71;100.00;99527.25;4996296;28;19921;-84
2023/08/05 08:08:20;;;;;;;;;;;;;;;5.63;100.00;99533.59;4995846;28;20369;-86
2023/08/05 08:10:46;;;;;;;;;;;;;;;5.42;100.00;99521.88;4996211;28;19922;-82
2023/08/05 08:13:11;;;;;;;;;;;;;;;5.44;100.00;99519.19;4996108;28;20400;-86
2023/08/05 08:15:36;;;;;;;;;;;;;;;5.44;100.00;99519.19;4978352;28;20016;-86
2023/08/05 08:18:01;;;;;;;;;;;;;;;5.99;100.00;99530.03;4994717;28;20276;-87
2023/08/05 08:20:27;;;;;;;;;;;;;;;5.62;100.00;99518.72;4995827;28;19960;-88
2023/08/05 08:22:52;;;;;;;;;;;;;;;5.64;100.00;99516.91;4996139;28;19976;-87
2023/08/05 08:25:17;;;;;;;;;;;;;;;5.94;100.00;99510.88;4995840;28;19948;-86
2023/08/05 08:27:42;;;;;;;;;;;;;;;5.59;100.00;99503.03;4995766;28;19941;-89
2023/08/05 08:30:08;;;;;;;;;;;;;;;5.51;100.00;99505.00;4995792;28;19925;-87
2023/08/05 08:32:33;;;;;;;;;;;;;;;5.64;100.00;99505.53;4994806;28;19918;-87
2023/08/05 08:34:58;;;;;;;;;;;;;;;5.62;100.00;99500.31;4994156;28;19922;-84
2023/08/05 08:37:23;;;;;;;;;;;;;;;5.64;100.00;99505.53;4995540;28;20265;-90
2023/08/05 08:39:49;;;;;;;;;;;;;;;5.48;100.00;99504.25;4995647;28;19981;-88
2023/08/05 08:42:19;;;;;;;;;;;;;;;5.57;100.00;99498.75;4978220;28;19918;-90
2023/08/05 08:44:44;;;;;;;;;;;;;;;5.64;100.00;99495.03;4995416;28;19917;-87
2023/08/05 08:47:09;;;;;;;;;;;;;;;5.81;100.00;99497.19;4995661;28;19928;-88
2023/08/05 08:49:35;;;;;;;;;;;;;;;5.67;100.00;99489.69;4993986;28;19922;-87
2023/08/05 08:52:02;;;;;;;;;;;;;;;5.57;100.00;99489.06;4995372;28;19925;-83
2023/08/05 08:54:28;;;;;;;;;;;;;;;5.59;100.00;99491.66;4995194;28;19921;-83
2023/08/05 08:56:53;;;;;;;;;;;;;;;5.63;100.00;99488.03;4995387;28;20005;-89
2023/08/05 08:59:19;;;;;;;;;;;;;;;5.54;100.00;99485.69;4977649;28;20004;-85
2023/08/05 09:01:45;;;;;;;;;;;;;;;5.64;100.00;99497.66;4994655;28;20329;-86
2023/08/05 09:04:11;;;;;;;;;;;;;;;5.55;100.00;99490.91;4994111;28;19922;-86
2023/08/05 09:06:38;;;;;;;;;;;;;;;5.56;100.00;99482.09;4995751;28;19981;-90
2023/08/05 09:09:03;;;;;;;;;;;;;;;5.52;100.00;99488.34;4977337;28;20373;-84
2023/08/05 09:11:29;;;;;;;;;;;;;;;5.40;100.00;99489.53;4994845;28;19976;-82
2023/08/05 09:13:54;;;;;;;;;;;;;;;5.44;100.00;99490.28;4995115;28;19925;-82
2023/08/05 09:16:19;;;;;;;;;;;;;;;5.37;100.00;99486.13;4977435;28;19972;-83
2023/08/05 09:18:51;;;;;;;;;;;;;;;5.38;100.00;99493.97;4991984;28;19948;-83
2023/08/05 09:21:23;;;;;;;;;;;;;;;5.51;100.00;99489.25;4976555;28;19972;-85
2023/08/05 09:23:49;;;;;;;;;;;;;;;5.46;100.00;99478.00;4994419;28;19948;-85
2023/08/05 09:26:14;;;;;;;;;;;;;;;5.45;100.00;99473.63;4994771;28;19918;-85
2023/08/05 09:28:39;;;;;;;;;;;;;;;5.37;100.00;99480.88;4994879;28;19988;-83
2023/08/05 09:31:11;;;;;;;;;;;;;;;5.41;100.00;99482.53;4994678;28;20001;-83
2023/08/05 09:33:37;;;;;;;;;;;;;;;5.48;100.00;99481.44;4993312;28;20418;-87
2023/08/05 09:36:09;;;;;;;;;;;;;;;5.51;100.00;99483.97;4993174;28;19925;-89
2023/08/05 09:38:34;;;;;;;;;;;;;;;5.51;100.00;99480.50;4994372;28;19940;-85
2023/08/05 09:41:01;;;;;;;;;;;;;;;5.49;100.00;99474.41;4995789;28;19921;-84
2023/08/05 09:43:29;;;;;;;;;;;;;;;5.46;100.00;99467.50;4992962;28;19945;-86
2023/08/05 09:45:54;;;;;;;;;;;;;;;5.51;100.00;99467.38;4994221;28;20435;-89
2023/08/05 09:48:22;;;;;;;;;;;;;;;5.51;100.00;99464.75;4975710;28;19917;-88
2023/08/05 09:50:48;;;;;;;;;;;;;;;5.49;100.00;99464.78;4976677;28;19917;-83
2023/08/05 09:53:17;;;;;;;;;;;;;;;5.52;100.00;99456.81;4976733;28;19925;-84
2023/08/05 09:55:43;;;;;;;;;;;;;;;5.53;100.00;99458.50;4993487;28;19928;-82
2023/08/05 09:58:10;;;;;;;;;;;;;;;5.50;100.00;99460.38;4976668;28;20284;-85
2023/08/05 10:00:35;;;;;;;;;;;;;;;5.47;100.00;99456.06;4976578;28;20020;-87
2023/08/05 10:03:04;;;;;;;;;;;;;;;5.43;100.00;99449.16;4992768;28;20017;-87
2023/08/05 10:05:30;;;;;;;;;;;;;;;5.42;100.00;99447.44;4993866;28;19924;-86
2023/08/05 10:07:58;;;;;;;;;;;;;;;5.39;100.00;99437.88;4993831;28;20369;-87
2023/08/05 10:10:24;;;;;;;;;;;;;;;5.38;100.00;99443.19;4993683;28;19952;-87
2023/08/05 10:13:03;;;;;;;;;;;;;;;5.44;100.00;99440.38;4993398;28;20365;-88
2023/08/05 10:15:29;;;;;;;;;;;;;;;5.39;100.00;99430.00;4993503;28;20556;-87
2023/08/05 10:17:55;;;;;;;;;;;;;;;5.41;100.00;99427.34;4992813;28;19929;-87
2023/08/05 10:20:20;;;;;;;;;;;;;;;5.44;100.00;99429.84;4993324;28;20308;-83
2023/08/05 10:23:05;;;;;;;;;;;;;;;5.54;100.00;99430.50;4975949;28;19929;-87
2023/08/05 10:25:44;;;;;;;;;;;;;;;5.47;100.00;99429.78;4993578;28;19918;-83
2023/08/05 10:28:09;;;;;;;;;;;;;;;5.38;100.00;99422.16;4993646;28;19918;-82
2023/08/05 10:30:44;;;;;;;;;;;;;;;5.38;100.00;99416.91;4993632;28;19925;-87
2023/08/05 10:33:10;;;;;;;;;;;;;;;5.39;100.00;99418.63;4992082;28;19988;-83
2023/08/05 10:35:38;;;;;;;;;;;;;;;5.32;100.00;99415.28;4975612;28;20417;-86
2023/08/05 10:38:08;;;;;;;;;;;;;;;5.37;100.00;99408.16;4991460;28;19918;-83
2023/08/05 10:40:43;;;;;;;;;;;;;;;5.39;100.00;99408.09;4975716;28;19919;-83
2023/08/05 10:43:10;;;;;;;;;;;;;;;5.31;100.00;99403.06;4975788;28;19948;-84
2023/08/05 10:45:40;;;;;;;;;;;;;;;5.35;100.00;99403.84;4993064;28;19926;-84
2023/08/05 10:48:13;;;;;;;;;;;;;;;5.37;100.00;99395.00;4991326;28;19968;-82
2023/08/05 10:50:41;;;;;;;;;;;;;;;5.38;100.00;99393.25;4992920;28;20016;-83
2023/08/05 10:53:11;;;;;;;;;;;;;;;5.42;100.00;99398.38;4976037;28;20292;-82
2023/08/05 10:55:50;;;;;;;;;;;;;;;5.41;100.00;99388.78;4992447;28;20289;-83
2023/08/05 10:58:20;;;;;;;;;;;;;;;5.35;100.00;99386.31;4992236;28;19917;-83
2023/08/05 11:00:57;;;;;;;;;;;;;;;5.45;100.00;99389.53;4992896;28;19921;-83
2023/08/05 11:03:24;;;;;;;;;;;;;;;5.34;100.00;99381.09;4991475;28;19918;-83
2023/08/05 11:05:49;;;;;;;;;;;;;;;5.35;100.00;99383.69;4975469;28;19918;-87
2023/08/05 11:08:22;;;;;;;;;;;;;;;5.38;100.00;99382.75;4992338;28;20281;-84
2023/08/05 11:10:50;;;;;;;;;;;;;;;5.33;100.00;99375.00;4991992;28;19957;-88
2023/08/05 11:13:16;;;;;;;;;;;;;;;5.33;100.00;99374.13;4975456;28;19918;-82
2023/08/05 11:15:42;;;;;;;;;;;;;;;5.31;100.00;99371.53;4975319;28;19918;-82
2023/08/05 11:18:07;;;;;;;;;;;;;;;5.34;100.00;99367.97;4991469;28;20056;-86
2023/08/05 11:20:33;;;;;;;;;;;;;;;5.35;100.00;99364.44;4991496;28;19972;-83
2023/08/05 11:22:59;;;;;;;;;;;;;;;5.35;100.00;99361.81;4975177;28;19921;-81
2023/08/05 11:25:24;;;;;;;;;;;;;;;5.30;100.00;99359.31;4992461;28;20272;-82
2023/08/05 11:27:52;;;;;;;;;;;;;;;5.35;100.00;99359.19;4975097;28;19977;-85
2023/08/05 11:30:18;;;;;;;;;;;;;;;5.44;100.00;99348.41;4975121;28;19957;-84
2023/08/05 11:33:30;;;;;;;;;;;;;;;5.45;100.00;99347.50;4992397;28;20316;-85
2023/08/05 11:36:04;;;;;;;;;;;;;;;5.44;100.00;99336.13;4972482;28;19926;-82
2023/08/05 11:38:57;;;;;;;;;;;;;;;5.41;100.00;99332.75;4973946;28;19971;-85
2023/08/05 11:41:48;;;;;;;;;;;;;;;5.44;100.00;99324.75;4992344;28;19922;-85
2023/08/05 11:44:16;;;;;;;;;;;;;;;5.46;100.00;99320.31;4986706;28;19921;-83
2023/08/05 11:46:41;;;;;;;;;;;;;;;5.53;100.00;99321.84;4992324;28;19969;-82
2023/08/05 11:49:11;;;;;;;;;;;;;;;5.41;100.00;99316.97;4991086;28;20337;-82
2023/08/05 11:51:51;;;;;;;;;;;;;;;5.45;100.00;99313.34;4992395;28;19922;-84
2023/08/05 11:54:35;;;;;;;;;;;;;;;5.50;100.00;99303.53;4992300;28;20004;-85
2023/08/05 11:57:24;;;;;;;;;;;;;;;5.45;100.00;99302.81;4992505;28;19921;-85
2023/08/05 11:59:51;;;;;;;;;;;;;;;5.49;100.00;99296.59;4974031;28;19944;-83
2023/08/05 12:02:19;;;;;;;;;;;;;;;5.43;100.00;99297.63;4975114;28;19940;-83
2023/08/05 12:04:45;;;;;;;;;;;;;;;5.42;100.00;99284.53;4990931;28;20328;-82
2023/08/05 12:07:14;;;;;;;;;;;;;;;5.45;100.00;99274.78;4992238;28;19921;-84
2023/08/05 12:09:39;;;;;;;;;;;;;;;5.46;100.00;99276.50;4992245;28;19924;-87
2023/08/05 12:12:07;;;;;;;;;;;;;;;5.42;100.00;99274.00;4992025;28;20036;-86
2023/08/05 12:14:33;;;;;;;;;;;;;;;5.43;100.00;99273.13;4992141;28;20353;-84
2023/08/05 12:16:59;;;;;;;;;;;;;;;5.39;100.00;99263.59;4992268;28;19954;-83
2023/08/05 12:19:29;;;;;;;;;;;;;;;5.41;100.00;99267.06;4990838;28;19924;-86
2023/08/05 12:21:54;;;;;;;;;;;;;;;5.39;100.00;99266.22;4991706;28;19918;-85
2023/08/05 12:24:19;;;;;;;;;;;;;;;5.46;100.00;99259.88;4992106;28;19925;-87
2023/08/05 12:26:44;;;;;;;;;;;;;;;5.41;100.00;99267.06;4992113;28;19967;-87
2023/08/05 12:29:10;;;;;;;;;;;;;;;5.46;100.00;99263.38;4992501;28;20067;-85
2023/08/05 12:31:35;;;;;;;;;;;;;;;5.40;100.00;99260.06;4992087;28;19922;-87
2023/08/05 12:34:00;;;;;;;;;;;;;;;5.33;100.00;99258.50;4990895;28;19961;-86
2023/08/05 12:36:25;;;;;;;;;;;;;;;5.39;100.00;99258.34;4992058;28;20004;-87
2023/08/05 12:38:52;;;;;;;;;;;;;;;5.36;100.00;99253.16;4995562;28;20007;-87
2023/08/05 12:41:18;;;;;;;;;;;;;;;5.54;100.00;99252.63;4995659;28;20336;-84
2023/08/05 12:43:43;;;;;;;;;;;;;;;5.37;100.00;99245.25;4995543;28;19926;-86
2023/08/05 12:46:09;;;;;;;;;;;;;;;5.61;100.00;99241.00;4994483;28;19922;-86
2023/08/05 12:48:34;;;;;;;;;;;;;;;5.41;100.00;99244.25;4994159;28;19952;-85
2023/08/05 12:50:59;;;;;;;;;;;;;;;5.35;100.00;99240.97;4995046;28;20354;-85
2023/08/05 12:53:25;;;;;;;;;;;;;;;5.51;100.00;99243.97;4995490;28;20377;-87
2023/08/05 12:55:50;;;;;;;;;;;;;;;5.47;100.00;99240.56;4995265;28;20297;-83
2023/08/05 12:58:15;;;;;;;;;;;;;;;5.54;100.00;99228.97;4995193;28;19922;-85
2023/08/05 13:00:40;;;;;;;;;;;;;;;5.39;100.00;99229.44;4995138;28;20411;-84
2023/08/05 13:03:05;;;;;;;;;;;;;;;5.41;100.00;99230.28;4993792;28;20357;-89
2023/08/05 13:05:31;;;;;;;;;;;;;;;5.49;100.00;99230.00;4995111;28;19921;-83
2023/08/05 13:07:56;;;;;;;;;;;;;;;5.49;100.00;99228.25;4977997;28;19918;-84
2023/08/05 13:10:21;;;;;;;;;;;;;;;5.53;100.00;99229.03;4995293;28;20004;-82
2023/08/05 13:12:46;;;;;;;;;;;;;;;5.52;100.00;99222.91;4993719;28;20438;-84
2023/08/05 13:15:14;;;;;;;;;;;;;;;5.52;100.00;99222.91;4994902;28;20389;-82
2023/08/05 13:17:40;;;;;;;;;;;;;;;5.40;100.00;99208.38;4994814;28;19922;-82
2023/08/05 13:20:05;;;;;;;;;;;;;;;5.30;100.00;99211.31;4976008;28;19928;-89
2023/08/05 13:22:31;;;;;;;;;;;;;;;5.34;100.00;99208.56;4994840;28;19922;-86
2023/08/05 13:24:59;;;;;;;;;;;;;;;5.37;100.00;99203.22;4976690;28;19922;-87
2023/08/05 13:27:24;;;;;;;;;;;;;;;5.35;100.00;99194.53;4993867;28;19918;-83
2023/08/05 13:29:50;;;;;;;;;;;;;;;5.32;100.00;99191.13;4976999;28;20361;-87
2023/08/05 13:32:15;;;;;;;;;;;;;;;5.34;100.00;99192.78;4994602;28;19932;-88
2023/08/05 13:34:40;;;;;;;;;;;;;;;5.34;100.00;99189.31;4993449;28;19976;-86
2023/08/05 13:37:05;;;;;;;;;;;;;;;5.37;100.00;99181.34;4976865;28;19922;-82
2023/08/05 13:39:31;;;;;;;;;;;;;;;5.37;100.00;99182.19;4977072;28;20009;-86
2023/08/05 13:41:59;;;;;;;;;;;;;;;5.20;100.00;99187.97;4994430;28;19917;-85
2023/08/05 13:44:28;;;;;;;;;;;;;;;5.25;100.00;99172.94;4994507;28;20008;-84
2023/08/05 13:46:53;;;;;;;;;;;;;;;5.23;100.00;99172.13;4994278;28;19918;-88
2023/08/05 13:49:18;;;;;;;;;;;;;;;5.24;100.00;99172.97;4992948;28;19972;-86
2023/08/05 13:51:44;;;;;;;;;;;;;;;5.33;100.00;99163.94;4994326;28;20040;-85
2023/08/05 13:54:10;;;;;;;;;;;;;;;5.31;100.00;99157.88;4994105;28;19937;-87
2023/08/05 13:56:36;;;;;;;;;;;;;;;5.24;100.00;99152.81;4994121;28;19964;-88
2023/08/05 13:59:01;;;;;;;;;;;;;;;5.23;100.00;99159.00;4976501;28;19921;-90
2023/08/05 14:01:27;;;;;;;;;;;;;;;5.17;100.00;99156.56;4994308;28;19917;-87
2023/08/05 14:03:52;;;;;;;;;;;;;;;5.27;100.00;99152.72;4975237;28;20013;-88
2023/08/05 14:06:17;;;;;;;;;;;;;;;5.24;100.00;99149.34;4993890;28;19917;-90
2023/08/05 14:08:42;;;;;;;;;;;;;;;5.28;100.00;99151.81;4993928;28;20193;-86
2023/08/05 14:11:08;;;;;;;;;;;;;;;5.25;100.00;99146.66;4993001;28;20052;-86
2023/08/05 14:13:33;;;;;;;;;;;;;;;5.30;100.00;99146.53;4993853;28;19965;-86
2023/08/05 14:15:58;;;;;;;;;;;;;;;5.33;100.00;99146.44;4993836;28;19922;-88
2023/08/05 14:18:25;;;;;;;;;;;;;;;5.38;100.00;99164.69;4992601;28;20309;-84
2023/08/05 14:20:53;;;;;;;;;;;;;;;5.38;100.00;99162.06;4993588;28;20404;-87
2023/08/05 14:23:18;;;;;;;;;;;;;;;5.31;100.00;99171.88;4993662;28;19917;-85
2023/08/05 14:25:44;;;;;;;;;;;;;;;5.39;100.00;99192.66;4993554;28;19929;-92
2023/08/05 14:28:09;;;;;;;;;;;;;;;5.34;100.00;99179.66;4993816;28;19918;-87
2023/08/05 14:30:36;;;;;;;;;;;;;;;5.34;100.00;99176.19;4993443;28;19933;-86
2023/08/05 14:33:01;;;;;;;;;;;;;;;5.33;100.00;99177.97;4992434;28;19922;-87
2023/08/05 14:35:30;;;;;;;;;;;;;;;5.37;100.00;99173.47;4993243;28;20369;-84
2023/08/05 14:37:55;;;;;;;;;;;;;;;5.41;100.00;99156.69;4992324;28;19926;-85
2023/08/05 14:40:20;;;;;;;;;;;;;;;5.36;100.00;99148.09;4975237;28;19930;-84
2023/08/05 14:42:45;;;;;;;;;;;;;;;5.28;100.00;99146.56;4976029;28;20348;-87
2023/08/05 14:45:11;;;;;;;;;;;;;;;5.37;100.00;99134.91;4995884;28;20380;-86
2023/08/05 14:47:36;;;;;;;;;;;;;;;5.37;100.00;99134.03;4993489;28;19941;-86
2023/08/05 14:50:01;;;;;;;;;;;;;;;5.33;100.00;99116.66;4989980;28;19957;-84
2023/08/05 14:52:26;;;;;;;;;;;;;;;5.36;100.00;99106.94;4972845;28;20377;-87
2023/08/05 14:54:53;;;;;;;;;;;;;;;5.30;100.00;99107.13;4988401;28;19936;-90
2023/08/05 14:57:18;;;;;;;;;;;;;;;5.31;100.00;99098.31;4972217;28;20333;-87
2023/08/05 14:59:43;;;;;;;;;;;;;;;5.41;100.00;99091.00;4989667;28;19977;-86
2023/08/05 15:02:09;;;;;;;;;;;;;;;5.42;100.00;99079.56;4973949;28;20005;-83
2023/08/05 15:04:34;;;;;;;;;;;;;;;5.39;100.00;99085.81;4985774;28;19936;-85
2023/08/05 15:06:59;;;;;;;;;;;;;;;5.44;100.00;99073.38;4969140;28;19922;-85
2023/08/05 15:09:25;;;;;;;;;;;;;;;5.40;100.00;99082.25;4970502;28;20017;-86
2023/08/05 15:11:50;;;;;;;;;;;;;;;5.49;100.00;99081.09;4990766;28;20400;-86
2023/08/05 15:14:15;;;;;;;;;;;;;;;5.46;100.00;99073.31;4973621;28;19964;-84
2023/08/05 15:16:40;;;;;;;;;;;;;;;5.51;100.00;99058.25;4972833;28;19976;-83
2023/08/05 15:19:06;;;;;;;;;;;;;;;5.45;100.00;99056.69;4973290;28;20006;-90
2023/08/05 15:21:32;;;;;;;;;;;;;;;5.40;100.00;99055.97;4973879;28;20301;-87
2023/08/05 15:23:57;;;;;;;;;;;;;;;5.50;100.00;99061.78;4990408;28;19933;-87
2023/08/05 15:26:22;;;;;;;;;;;;;;;5.53;100.00;99066.94;4989387;28;19930;-86
2023/08/05 15:28:48;;;;;;;;;;;;;;;5.40;100.00;99068.28;4973207;28;19936;-85
2023/08/05 15:31:17;;;;;;;;;;;;;;;5.46;100.00;99073.31;4989203;28;20424;-87
2023/08/05 15:33:42;;;;;;;;;;;;;;;5.50;100.00;99071.44;4988080;28;19928;-84
2023/08/05 15:36:15;;;;;;;;;;;;;;;5.58;100.00;99065.00;4990140;28;19925;-87
2023/08/05 15:38:40;;;;;;;;;;;;;;;5.57;100.00;99063.31;4990197;28;19973;-90
2023/08/05 15:41:05;;;;;;;;;;;;;;;5.54;100.00;99068.66;4989171;28;19926;-84
2023/08/05 15:43:35;;;;;;;;;;;;;;;5.53;100.00;99068.72;4972891;28;19970;-83
2023/08/05 15:46:01;;;;;;;;;;;;;;;5.51;100.00;99073.19;4988406;28;19930;-82
2023/08/05 15:48:26;;;;;;;;;;;;;;;5.54;100.00;99068.66;4986898;28;20417;-85
2023/08/05 15:50:52;;;;;;;;;;;;;;;5.52;100.00;99059.97;4989457;28;19948;-84
2023/08/05 15:53:17;;;;;;;;;;;;;;;5.53;100.00;99056.41;4987566;28;20270;-85
2023/08/05 15:55:42;;;;;;;;;;;;;;;5.55;100.00;99059.88;4990280;28;19976;-84
2023/08/05 15:58:07;;;;;;;;;;;;;;;5.60;100.00;99059.69;4991037;28;19934;-83
2023/08/05 16:00:33;;;;;;;;;;;;;;;5.58;100.00;99059.75;4974985;28;20300;-86
2023/08/05 16:02:58;;;;;;;;;;;;;;;5.51;100.00;99060.88;4990457;28;19925;-86
2023/08/05 16:05:23;;;;;;;;;;;;;;;5.51;100.00;99063.50;4971838;28;20349;-83
2023/08/05 16:07:48;;;;;;;;;;;;;;;5.47;100.00;99067.13;4990110;28;19925;-87
2023/08/05 16:10:14;;;;;;;;;;;;;;;5.53;100.00;99051.16;4982918;28;19925;-83
2023/08/05 16:12:39;;;;;;;;;;;;;;;5.52;100.00;99049.47;4990486;28;19926;-84
2023/08/05 16:15:05;;;;;;;;;;;;;;;5.53;100.00;99048.53;4978527;28;19922;-84
2023/08/05 16:17:33;;;;;;;;;;;;;;;5.52;100.00;99044.22;4995864;28;19926;-86
2023/08/05 16:19:58;;;;;;;;;;;;;;;5.51;100.00;99047.75;4992431;28;19921;-86
2023/08/05 16:22:23;;;;;;;;;;;;;;;5.46;100.00;99047.03;4977912;28;19932;-86
2023/08/05 16:24:49;;;;;;;;;;;;;;;5.61;100.00;99043.03;4978425;28;20820;-87
2023/08/05 16:27:15;;;;;;;;;;;;;;;5.54;100.00;99042.38;4996232;28;19992;-85
2023/08/05 16:29:43;;;;;;;;;;;;;;;5.52;100.00;99043.34;4978239;28;19922;-87
2023/08/05 16:32:23;;;;;;;;;;;;;;;5.52;100.00;99035.44;4988430;28;19928;-83
2023/08/05 16:34:48;;;;;;;;;;;;;;;5.57;100.00;99036.19;4992415;28;19926;-82
2023/08/05 16:37:16;;;;;;;;;;;;;;;5.51;100.00;99031.13;4994830;28;19922;-85
2023/08/05 16:39:41;;;;;;;;;;;;;;;5.38;100.00;99030.69;4993031;28;19961;-83
2023/08/05 16:42:07;;;;;;;;;;;;;;;5.51;100.00;99020.63;4994774;28;19973;-85
2023/08/05 16:44:32;;;;;;;;;;;;;;;5.49;100.00;99028.56;4995275;28;19926;-83
2023/08/05 16:46:57;;;;;;;;;;;;;;;5.46;100.00;99023.41;4994837;28;19960;-87
2023/08/05 16:49:23;;;;;;;;;;;;;;;5.58;100.00;99022.94;4992277;28;19968;-87
2023/08/05 16:51:48;;;;;;;;;;;;;;;5.55;100.00;99020.47;4994212;28;19929;-85
2023/08/05 16:54:13;;;;;;;;;;;;;;;5.51;100.00;99018.84;4991329;28;19993;-84
2023/08/05 16:56:38;;;;;;;;;;;;;;;5.53;100.00;99017.00;4992941;28;19918;-85
2023/08/05 16:59:04;;;;;;;;;;;;;;;5.60;100.00;99013.28;4994491;28;19917;-84
2023/08/05 17:01:32;;;;;;;;;;;;;;;5.61;100.00;99017.59;4994053;28;20000;-84
2023/08/05 17:03:57;;;;;;;;;;;;;;;5.61;100.00;99017.59;4992119;28;19924;-85
2023/08/05 17:06:22;;;;;;;;;;;;;;;5.57;100.00;99015.16;4994265;28;19921;-85
2023/08/05 17:08:48;;;;;;;;;;;;;;;5.53;100.00;99014.38;4992818;28;20012;-84
2023/08/05 17:11:13;;;;;;;;;;;;;;;5.57;100.00;99005.50;4993388;28;19926;-86
2023/08/05 17:13:38;;;;;;;;;;;;;;;5.55;100.00;99009.94;4990667;28;19966;-84
2023/08/05 17:16:03;;;;;;;;;;;;;;;5.57;100.00;99004.63;4976253;28;19926;-84
2023/08/05 17:18:29;;;;;;;;;;;;;;;5.58;100.00;99006.34;4990271;28;19922;-83
2023/08/05 17:20:55;;;;;;;;;;;;;;;5.63;100.00;98997.41;4975527;28;20027;-85
2023/08/05 17:23:21;;;;;;;;;;;;;;;5.53;100.00;98993.34;4993556;28;19918;-85
2023/08/05 17:25:46;;;;;;;;;;;;;;;5.57;100.00;99002.84;4973824;28;19921;-84
2023/08/05 17:28:12;;;;;;;;;;;;;;;5.58;100.00;98995.81;4975575;28;19921;-85
2023/08/05 17:30:40;;;;;;;;;;;;;;;5.62;100.00;98987.78;4974132;28;19922;-83
2023/08/05 17:33:06;;;;;;;;;;;;;;;5.60;100.00;98988.72;4988031;28;19926;-83
2023/08/05 17:35:34;;;;;;;;;;;;;;;5.54;100.00;98984.56;4989279;28;19929;-85
2023/08/05 17:38:00;;;;;;;;;;;;;;;5.55;100.00;98975.78;4976902;28;19924;-85
2023/08/05 17:40:28;;;;;;;;;;;;;;;5.51;100.00;98979.41;4974109;28;19925;-83
2023/08/05 17:42:53;;;;;;;;;;;;;;;5.55;100.00;98970.53;4974840;28;19921;-84
2023/08/05 17:45:18;;;;;;;;;;;;;;;5.53;100.00;98966.22;4975225;28;19933;-87
2023/08/05 17:47:44;;;;;;;;;;;;;;;5.49;100.00;98964.59;4972806;28;19992;-84
2023/08/05 17:50:09;;;;;;;;;;;;;;;5.44;100.00;98970.91;4990590;28;19925;-85
2023/08/05 17:52:36;;;;;;;;;;;;;;;5.54;100.00;98968.81;4974130;28;19926;-87
2023/08/05 17:55:01;;;;;;;;;;;;;;;5.58;100.00;98957.25;4974633;28;20296;-81
2023/08/05 17:57:26;;;;;;;;;;;;;;;5.58;100.00;98959.88;4975555;28;19921;-82
2023/08/05 17:59:52;;;;;;;;;;;;;;;5.57;100.00;98952.94;4976776;28;19917;-88
2023/08/05 18:02:17;;;;;;;;;;;;;;;5.51;100.00;98947.03;4975958;28;19922;-85
2023/08/05 18:04:42;;;;;;;;;;;;;;;5.52;100.00;98944.34;4972141;28;20313;-88
2023/08/05 18:07:08;;;;;;;;;;;;;;;5.52;100.00;98948.72;4987278;28;19929;-85